Time;durP1;ratioP1;P1;durP2;ratioP2;P2;SDS_P1;SDS_P2;PMS_P1;PMS_P2;Temp;Humidity;BMP_temperature;BMP_pressure;BME280_temperature;BME280_humidity;BME280_pressure;Samples;Min_cycle;Max_cycle;Signal;HPM_P1;HPM_P2
2022/02/15 00:01:08;;;;;;;18.98;10.80;;;;;;;9.59;63.49;99655.56;4377166;32;32242;-83
2022/02/15 00:03:36;;;;;;;23.42;12.50;;;;;;;9.70;63.35;99656.00;4378657;32;33219;-83
2022/02/15 00:06:03;;;;;;;20.95;11.73;;;;;;;9.66;63.38;99657.87;4378347;32;32771;-83
2022/02/15 00:08:31;;;;;;;19.52;10.75;;;;;;;9.85;62.70;99647.41;4391364;32;34072;-83
2022/02/15 00:10:59;;;;;;;22.80;11.60;;;;;;;9.90;62.58;99652.50;4366309;32;34112;-83
2022/02/15 00:13:26;;;;;;;21.05;12.45;;;;;;;9.88;62.02;99649.94;4391190;32;33570;-83
2022/02/15 00:15:54;;;;;;;22.73;12.75;;;;;;;9.53;63.45;99655.81;4391487;32;34628;-83
2022/02/15 00:18:22;;;;;;;21.27;11.93;;;;;;;9.84;62.56;99658.91;4378512;32;32748;-83
2022/02/15 00:20:49;;;;;;;19.98;11.30;;;;;;;9.80;62.64;99652.03;4378013;32;32912;-84
2022/02/15 00:23:17;;;;;;;23.77;12.48;;;;;;;9.68;62.88;99657.81;4378776;32;34541;-84
2022/02/15 00:25:45;;;;;;;20.48;12.57;;;;;;;9.48;63.65;99659.50;4390897;32;33372;-83
2022/02/15 00:28:12;;;;;;;20.70;12.77;;;;;;;9.63;63.27;99659.78;4378153;32;33631;-82
2022/02/15 00:30:40;;;;;;;23.45;11.50;;;;;;;9.62;63.49;99658.09;4379052;32;34227;-82
2022/02/15 00:33:07;;;;;;;22.75;12.15;;;;;;;9.77;62.97;99652.16;4378686;32;33452;-82
2022/02/15 00:35:35;;;;;;;23.62;12.25;;;;;;;9.67;63.26;99648.19;4377821;32;33518;-82
2022/02/15 00:38:03;;;;;;;22.23;12.02;;;;;;;9.72;63.26;99654.12;4366243;32;33864;-82
2022/02/15 00:40:31;;;;;;;18.62;11.32;;;;;;;9.97;62.20;99643.41;4378622;32;34209;-82
2022/02/15 00:43:01;;;;;;;19.10;12.25;;;;;;;10.08;61.67;99642.94;4366432;32;34344;-82
2022/02/15 00:45:28;;;;;;;26.33;12.85;;;;;;;9.51;63.48;99653.28;4377861;32;33446;-82
2022/02/15 00:47:56;;;;;;;23.30;12.50;;;;;;;9.80;62.84;99649.41;4378233;32;34673;-82
2022/02/15 00:50:24;;;;;;;20.92;12.13;;;;;;;9.79;62.92;99644.19;4378283;32;32610;-82
2022/02/15 00:52:53;;;;;;;25.25;13.45;;;;;;;9.97;62.14;99635.50;4364524;32;32917;-83
2022/02/15 00:55:25;;;;;;;22.65;11.63;;;;;;;9.48;63.52;99648.97;4377845;32;33561;-82
2022/02/15 00:57:52;;;;;;;19.55;11.90;;;;;;;9.77;62.83;99640.75;4378549;32;33601;-83
2022/02/15 01:00:22;;;;;;;23.42;11.85;;;;;;;9.39;64.06;99645.84;4378379;32;33779;-83
2022/02/15 01:02:50;;;;;;;22.58;11.57;;;;;;;9.56;63.59;99642.53;4390870;32;33891;-85
2022/02/15 01:05:18;;;;;;;19.60;12.85;;;;;;;9.33;64.27;99646.97;4389754;32;33266;-85
2022/02/15 01:07:46;;;;;;;24.27;12.90;;;;;;;9.11;65.21;99646.12;4377989;32;32717;-84
2022/02/15 01:10:13;;;;;;;22.02;12.48;;;;;;;9.10;65.34;99644.41;4392318;32;33902;-84
2022/02/15 01:12:40;;;;;;;23.77;11.90;;;;;;;9.03;65.56;99633.28;4365768;32;33647;-85
2022/02/15 01:15:09;;;;;;;21.55;12.98;;;;;;;8.94;66.01;99641.53;4378495;32;33530;-84
2022/02/15 01:17:39;;;;;;;17.10;11.00;;;;;;;9.08;65.66;99641.00;4366565;32;33923;-84
2022/02/15 01:20:07;;;;;;;21.45;12.85;;;;;;;9.09;65.51;99632.16;4390730;32;34067;-84
2022/02/15 01:22:35;;;;;;;24.40;13.27;;;;;;;9.29;65.03;99631.34;4378459;32;32684;-84
2022/02/15 01:25:04;;;;;;;23.65;13.27;;;;;;;9.27;64.97;99636.69;4365798;32;32609;-84
2022/02/15 01:27:32;;;;;;;20.62;11.80;;;;;;;9.32;64.84;99632.09;4378408;32;33550;-84
2022/02/15 01:30:00;;;;;;;23.95;13.05;;;;;;;9.35;64.77;99631.97;4378069;32;32637;-84
2022/02/15 01:32:28;;;;;;;20.12;12.55;;;;;;;9.35;64.66;99624.06;4365416;32;33489;-84
2022/02/15 01:34:56;;;;;;;23.98;13.38;;;;;;;9.61;63.85;99616.84;4365848;32;32531;-85
2022/02/15 01:37:24;;;;;;;19.08;12.63;;;;;;;9.59;63.76;99616.91;4365273;32;33872;-84
2022/02/15 01:39:52;;;;;;;24.48;11.82;;;;;;;9.48;64.11;99604.16;4389941;32;32267;-84
2022/02/15 01:42:20;;;;;;;22.55;12.45;;;;;;;9.58;63.76;99598.50;4377003;32;34087;-83
2022/02/15 01:44:48;;;;;;;20.45;12.25;;;;;;;9.47;64.12;99599.81;4378126;32;33017;-84
2022/02/15 01:47:34;;;;;;;21.45;12.70;;;;;;;9.52;64.00;99604.03;4390554;32;32607;-84
2022/02/15 01:50:04;;;;;;;19.83;11.90;;;;;;;9.56;63.94;99595.94;4392114;32;33588;-84
2022/02/15 01:52:32;;;;;;;20.37;12.60;;;;;;;9.57;63.97;99602.06;4373245;32;32849;-83
2022/02/15 01:55:00;;;;;;;22.50;12.43;;;;;;;9.63;63.76;99601.78;4378141;32;33172;-84
2022/02/15 01:57:29;;;;;;;24.17;14.15;;;;;;;9.44;64.31;99613.13;4377965;32;33806;-84
2022/02/15 01:59:58;;;;;;;21.20;12.80;;;;;;;9.32;64.76;99603.09;4365366;32;32144;-84
2022/02/15 02:02:27;;;;;;;18.50;11.30;;;;;;;9.51;64.13;99599.69;4353114;32;32749;-84
2022/02/15 02:07:42;;;;;;;19.75;10.50;;;;;;;9.53;63.99;99596.06;4390736;32;34362;-83
2022/02/15 02:10:14;;;;;;;18.57;12.43;;;;;;;9.58;63.83;99594.09;4378605;32;33587;-83
2022/02/15 02:12:41;;;;;;;16.45;11.52;;;;;;;9.71;63.52;99594.41;4377531;32;33204;-83
2022/02/15 02:15:16;;;;;;;20.80;11.68;;;;;;;9.53;63.99;99589.94;4377790;32;32591;-82
2022/02/15 02:17:47;;;;;;;20.20;11.85;;;;;;;9.52;64.13;99593.50;4381175;32;33762;-83
2022/02/15 02:20:15;;;;;;;20.75;12.25;;;;;;;9.63;63.76;99591.25;4365608;32;33543;-82
2022/02/15 02:22:44;;;;;;;20.73;12.60;;;;;;;9.56;63.87;99592.44;4376657;32;34517;-82
2022/02/15 02:25:17;;;;;;;17.45;11.85;;;;;;;9.38;64.67;99596.72;4366641;32;32220;-82
2022/02/15 02:27:46;;;;;;;19.75;12.60;;;;;;;9.40;64.39;99595.75;4380196;32;33899;-82
2022/02/15 02:30:14;;;;;;;19.10;12.07;;;;;;;9.44;64.36;99585.91;4366161;32;32572;-82
2022/02/15 02:32:43;;;;;;;17.92;12.20;;;;;;;9.26;64.90;99590.19;4367915;32;33497;-82
2022/02/15 02:35:11;;;;;;;20.73;12.73;;;;;;;9.41;64.36;99591.31;4378620;32;33589;-82
2022/02/15 02:37:38;;;;;;;19.30;11.95;;;;;;;9.30;64.58;99594.38;4366690;32;33827;-83
2022/02/15 02:40:09;;;;;;;21.08;13.18;;;;;;;9.25;64.75;99585.81;4379325;32;32914;-83
2022/02/15 02:42:38;;;;;;;21.98;11.85;;;;;;;9.32;64.48;99587.28;4379676;32;33987;-83
2022/02/15 02:45:12;;;;;;;19.33;11.80;;;;;;;9.39;64.14;99588.72;4392226;32;33469;-83
2022/02/15 02:47:44;;;;;;;21.40;12.77;;;;;;;9.48;63.92;99588.34;4366523;32;33413;-84
2022/02/15 02:50:14;;;;;;;23.38;12.23;;;;;;;9.53;63.66;99582.87;4393268;32;33510;-85
2022/02/15 02:52:42;;;;;;;23.50;13.50;;;;;;;9.37;64.19;99587.09;4379277;32;32942;-83
2022/02/15 02:55:10;;;;;;;20.95;11.05;;;;;;;9.55;63.59;99581.06;4392274;32;34015;-84
2022/02/15 02:57:39;;;;;;;18.45;11.80;;;;;;;9.49;63.91;99586.56;4379324;32;32868;-84
2022/02/15 03:00:10;;;;;;;22.98;12.70;;;;;;;9.42;63.96;99585.12;4366971;32;32577;-85
2022/02/15 03:02:38;;;;;;;20.17;10.95;;;;;;;9.08;65.07;99588.31;4372071;32;32184;-85
2022/02/15 03:05:07;;;;;;;19.23;11.88;;;;;;;9.27;64.48;99594.53;4361330;32;32436;-85
2022/02/15 03:07:35;;;;;;;19.12;11.20;;;;;;;9.16;64.79;99596.75;4379905;32;33757;-85
2022/02/15 03:10:04;;;;;;;19.02;10.90;;;;;;;9.26;64.58;99600.72;4391679;32;32547;-85
2022/02/15 03:12:33;;;;;;;20.42;11.07;;;;;;;9.30;64.34;99599.66;4354911;32;33370;-85
2022/02/15 03:15:01;;;;;;;17.23;11.77;;;;;;;9.26;64.54;99602.47;4379115;32;33324;-85
2022/02/15 03:17:30;;;;;;;19.92;12.20;;;;;;;9.34;64.18;99603.88;4379532;32;34527;-85
2022/02/15 03:20:18;;;;;;;19.80;11.12;;;;;;;9.16;64.66;99597.63;4391617;32;33058;-84
2022/02/15 03:22:46;;;;;;;20.12;10.52;;;;;;;9.06;65.12;99600.66;4373411;32;32742;-84
2022/02/15 03:25:14;;;;;;;22.85;11.63;;;;;;;9.09;65.00;99611.09;4391775;32;33650;-83
2022/02/15 03:27:43;;;;;;;19.20;11.12;;;;;;;9.17;64.69;99603.75;4379369;32;32819;-84
2022/02/15 03:30:10;;;;;;;18.08;11.20;;;;;;;9.16;64.77;99612.53;4378812;32;33315;-83
2022/02/15 03:32:39;;;;;;;16.05;10.00;;;;;;;9.09;64.96;99619.84;4379009;32;33356;-83
2022/02/15 03:35:08;;;;;;;19.42;11.15;;;;;;;9.16;64.64;99613.44;4378893;32;35667;-83
2022/02/15 03:37:36;;;;;;;21.52;12.70;;;;;;;9.09;64.91;99611.94;4378828;32;32729;-85
2022/02/15 03:40:04;;;;;;;17.52;11.93;;;;;;;9.08;64.83;99612.03;4365768;32;33420;-85
2022/02/15 03:45:20;;;;;;;18.35;11.52;;;;;;;9.06;64.66;99619.09;4368318;32;33322;-85
2022/02/15 03:47:48;;;;;;;19.77;10.68;;;;;;;8.86;64.94;99623.41;4366927;32;34017;-85
2022/02/15 03:50:16;;;;;;;23.85;12.77;;;;;;;8.86;65.02;99625.19;4392609;32;33859;-84
2022/02/15 03:52:44;;;;;;;23.42;13.57;;;;;;;8.95;64.52;99630.94;4365926;32;33826;-84
2022/02/15 03:55:12;;;;;;;22.02;12.60;;;;;;;9.10;64.05;99640.00;4379151;32;33675;-84
2022/02/15 03:57:40;;;;;;;22.37;12.37;;;;;;;8.91;64.45;99639.88;4366725;32;33274;-82
2022/02/15 04:00:09;;;;;;;19.27;12.43;;;;;;;8.96;64.42;99643.19;4391456;32;34235;-83
2022/02/15 04:02:38;;;;;;;21.52;12.77;;;;;;;9.09;64.11;99646.19;4378136;32;33645;-82
2022/02/15 04:05:07;;;;;;;22.37;12.98;;;;;;;8.96;64.31;99643.19;4384379;32;33419;-82
2022/02/15 04:07:35;;;;;;;19.83;11.70;;;;;;;8.68;65.09;99642.53;4379175;32;32892;-83
2022/02/15 04:10:04;;;;;;;19.58;11.80;;;;;;;8.85;64.61;99650.66;4365828;32;33681;-83
2022/02/15 04:12:33;;;;;;;26.12;12.90;;;;;;;8.96;64.27;99645.81;4379012;32;34761;-82
2022/02/15 04:15:00;;;;;;;18.25;11.55;;;;;;;9.05;63.88;99641.09;4365182;32;34101;-83
2022/02/15 04:17:30;;;;;;;20.73;11.27;;;;;;;8.77;64.31;99641.34;4366782;32;32856;-83
2022/02/15 04:19:58;;;;;;;18.87;11.85;;;;;;;8.73;64.10;99648.47;4379336;32;33712;-83
2022/02/15 04:22:26;;;;;;;22.23;10.98;;;;;;;8.78;63.58;99646.53;4391009;32;33885;-83
2022/02/15 04:24:54;;;;;;;19.48;10.93;;;;;;;8.69;63.58;99650.41;4378437;32;33396;-84
2022/02/15 04:27:22;;;;;;;17.92;11.12;;;;;;;8.67;63.41;99651.34;4378593;32;34022;-84
2022/02/15 04:29:50;;;;;;;22.35;10.75;;;;;;;8.57;63.09;99650.00;4392559;32;32922;-84
2022/02/15 04:32:18;;;;;;;20.45;11.93;;;;;;;8.42;63.12;99654.91;4366627;32;33224;-84
2022/02/15 04:34:46;;;;;;;19.35;11.15;;;;;;;8.37;62.88;99656.88;4366328;32;35135;-84
2022/02/15 04:37:14;;;;;;;15.63;10.32;;;;;;;8.39;62.71;99649.75;4378841;32;34756;-83
2022/02/15 04:39:53;;;;;;;22.08;10.88;;;;;;;8.34;62.62;99654.31;4366510;32;32514;-83
2022/02/15 04:42:21;;;;;;;17.42;10.65;;;;;;;8.40;62.25;99643.59;4378434;32;33574;-83
2022/02/15 04:44:49;;;;;;;21.10;11.80;;;;;;;8.31;62.10;99654.44;4379811;32;33639;-83
2022/02/15 04:47:22;;;;;;;18.50;11.40;;;;;;;8.20;62.02;99656.56;4366833;32;34822;-84
2022/02/15 04:49:50;;;;;;;16.45;10.00;;;;;;;7.99;62.41;99657.37;4366202;32;33184;-84
2022/02/15 04:52:18;;;;;;;25.40;11.30;;;;;;;8.05;62.19;99658.00;4365263;32;32315;-85
2022/02/15 04:54:45;;;;;;;17.17;11.38;;;;;;;7.89;62.49;99662.94;4365786;32;34267;-84
2022/02/15 04:57:13;;;;;;;18.40;10.60;;;;;;;7.92;62.28;99660.19;4378182;32;34048;-84
2022/02/15 04:59:41;;;;;;;18.70;10.98;;;;;;;8.02;61.78;99654.59;4391627;32;33273;-84
2022/02/15 05:02:12;;;;;;;21.55;11.63;;;;;;;7.85;61.99;99655.22;4379258;32;33087;-84
2022/02/15 05:04:50;;;;;;;17.35;10.57;;;;;;;7.19;63.56;99654.78;4379064;32;33871;-84
2022/02/15 05:07:22;;;;;;;17.20;11.27;;;;;;;7.12;63.56;99653.25;4379553;32;33705;-84
2022/02/15 05:09:51;;;;;;;33.08;15.20;;;;;;;7.29;62.92;99652.72;4372745;32;32559;-84
2022/02/15 05:12:18;;;;;;;17.73;11.63;;;;;;;6.96;63.71;99660.78;4378902;32;33941;-84
2022/02/15 05:14:46;;;;;;;17.75;10.77;;;;;;;7.13;63.20;99662.88;4383349;32;33907;-84
2022/02/15 05:17:14;;;;;;;20.42;11.18;;;;;;;6.96;63.64;99665.16;4377988;32;34575;-84
2022/02/15 05:19:44;;;;;;;25.90;13.30;;;;;;;7.07;63.05;99665.69;4378292;32;32401;-83
2022/02/15 05:22:11;;;;;;;23.17;11.43;;;;;;;7.13;62.42;99657.63;4378573;32;32686;-83
2022/02/15 05:24:40;;;;;;;25.37;13.57;;;;;;;6.88;62.57;99666.28;4366109;32;32745;-84
2022/02/15 05:27:08;;;;;;;19.83;11.70;;;;;;;6.89;62.50;99665.34;4378353;32;32905;-84
2022/02/15 05:29:37;;;;;;;27.13;12.10;;;;;;;6.83;62.82;99673.41;4366865;32;33787;-83
2022/02/15 05:32:09;;;;;;;19.85;11.40;;;;;;;6.76;62.84;99674.50;4378685;32;34744;-84
2022/02/15 05:34:37;;;;;;;18.67;11.52;;;;;;;6.79;62.52;99676.16;4376259;32;32873;-83
2022/02/15 05:37:04;;;;;;;21.85;12.30;;;;;;;6.84;62.30;99680.41;4365287;32;33666;-83
2022/02/15 05:39:35;;;;;;;20.25;12.10;;;;;;;6.65;62.68;99676.59;4388891;32;34571;-83
2022/02/15 05:42:03;;;;;;;23.85;13.18;;;;;;;6.74;62.03;99689.44;4387171;32;34162;-83
2022/02/15 05:44:31;;;;;;;24.95;12.43;;;;;;;6.75;61.76;99688.53;4374524;32;36138;-83
2022/02/15 05:47:02;;;;;;;24.08;12.65;;;;;;;6.55;62.10;99694.38;4376329;32;33831;-84
2022/02/15 05:49:30;;;;;;;25.30;12.25;;;;;;;6.65;61.81;99687.09;4386838;32;31911;-83
2022/02/15 05:51:58;;;;;;;33.38;15.30;;;;;;;6.73;61.36;99690.34;4375342;32;33755;-85
2022/02/15 05:54:26;;;;;;;25.75;13.55;;;;;;;6.64;61.46;99698.47;4374307;32;33072;-84
2022/02/15 05:56:54;;;;;;;28.50;13.10;;;;;;;6.64;61.28;99703.72;4386698;32;32832;-83
2022/02/15 05:59:23;;;;;;;23.15;12.35;;;;;;;6.38;61.81;99701.84;4373585;32;33554;-83
2022/02/15 06:01:51;;;;;;;21.90;11.35;;;;;;;6.47;61.45;99706.84;4362435;32;33214;-83
2022/02/15 06:04:19;;;;;;;24.65;12.77;;;;;;;6.35;61.84;99697.53;4386155;32;33214;-85
2022/02/15 06:06:47;;;;;;;25.35;13.45;;;;;;;6.43;61.63;99709.59;4385707;32;32819;-83
2022/02/15 06:09:15;;;;;;;29.08;14.23;;;;;;;6.32;61.66;99702.91;4374201;32;33432;-84
2022/02/15 06:11:45;;;;;;;20.40;12.35;;;;;;;6.53;61.05;99711.91;4388355;32;33645;-83
2022/02/15 06:14:13;;;;;;;30.55;14.02;;;;;;;6.28;61.48;99705.66;4375653;32;33592;-84
2022/02/15 06:16:41;;;;;;;25.83;14.02;;;;;;;6.21;61.72;99710.19;4371013;32;34547;-84
2022/02/15 06:19:09;;;;;;;28.40;14.73;;;;;;;6.00;62.21;99710.78;4385215;32;33653;-84
2022/02/15 06:21:37;;;;;;;23.40;13.18;;;;;;;6.14;61.96;99713.88;4398061;32;33098;-83
2022/02/15 06:24:07;;;;;;;25.15;14.00;;;;;;;5.92;62.96;99718.81;4358926;32;33057;-84
2022/02/15 06:27:01;;;;;;;25.40;12.88;;;;;;;5.94;63.21;99722.28;4364570;32;33303;-83
2022/02/15 06:29:34;;;;;;;22.05;12.40;;;;;;;6.17;62.58;99734.75;4386933;32;31294;-85
2022/02/15 06:32:03;;;;;;;24.08;13.60;;;;;;;6.07;62.96;99733.28;4387602;32;33680;-84
2022/02/15 06:34:31;;;;;;;25.37;13.88;;;;;;;6.29;62.25;99729.19;4371190;32;33912;-85
2022/02/15 06:37:00;;;;;;;25.00;13.82;;;;;;;6.15;62.49;99742.66;4398307;32;35409;-85
2022/02/15 06:39:30;;;;;;;31.37;14.95;;;;;;;6.30;62.07;99736.16;4374835;32;32914;-85
2022/02/15 06:41:58;;;;;;;30.77;16.08;;;;;;;6.06;63.07;99742.06;4388189;32;33911;-85
2022/02/15 06:44:25;;;;;;;40.28;16.35;;;;;;;6.14;63.19;99745.34;4401439;32;33313;-85
2022/02/15 06:46:53;;;;;;;33.95;16.87;;;;;;;6.15;63.24;99747.06;4389441;32;33518;-85
2022/02/15 06:49:21;;;;;;;34.67;16.33;;;;;;;6.31;62.98;99748.34;4369483;32;33209;-85
2022/02/15 06:51:50;;;;;;;38.03;16.23;;;;;;;6.35;63.30;99744.75;4377835;32;33905;-85
2022/02/15 06:54:18;;;;;;;39.42;18.35;;;;;;;6.34;63.62;99748.28;4364473;32;34718;-85
2022/02/15 06:56:46;;;;;;;43.87;20.45;;;;;;;6.75;62.45;99738.41;4363401;32;33869;-85
2022/02/15 06:59:16;;;;;;;41.85;20.60;;;;;;;6.57;63.16;99747.66;4377537;32;32154;-85
2022/02/15 07:01:43;;;;;;;39.38;20.10;;;;;;;6.57;63.68;99744.16;4365001;32;33675;-85
2022/02/15 07:04:12;;;;;;;41.92;20.58;;;;;;;6.50;64.23;99747.84;4364056;32;34671;-85
2022/02/15 07:06:39;;;;;;;47.47;23.42;;;;;;;6.73;63.90;99745.44;4373605;32;33945;-85
2022/02/15 07:09:08;;;;;;;52.33;24.30;;;;;;;6.96;63.35;99750.03;4373910;32;33846;-85
2022/02/15 07:11:38;;;;;;;54.55;25.88;;;;;;;7.11;63.82;99746.91;4387883;32;35499;-85
2022/02/15 07:14:06;;;;;;;51.70;25.20;;;;;;;6.99;64.85;99754.34;4375315;32;33903;-85
2022/02/15 07:16:35;;;;;;;47.97;23.02;;;;;;;6.87;65.92;99756.41;4389214;32;33587;-85
2022/02/15 07:19:04;;;;;;;43.60;23.35;;;;;;;6.87;66.66;99751.16;4389603;32;31227;-85
2022/02/15 07:21:33;;;;;;;49.35;25.20;;;;;;;6.62;67.98;99753.62;4388628;32;34031;-85
2022/02/15 07:24:08;;;;;;;42.85;23.95;;;;;;;6.72;67.99;99762.09;4377452;32;32396;-85
2022/02/15 07:26:37;;;;;;;41.22;21.95;;;;;;;7.00;67.44;99756.03;4376838;32;34449;-84
2022/02/15 07:29:06;;;;;;;38.90;21.95;;;;;;;7.09;67.70;99750.53;4388236;32;32451;-85
2022/02/15 07:31:35;;;;;;;41.13;21.98;;;;;;;7.10;67.77;99750.47;4376799;32;34145;-84
2022/02/15 07:34:03;;;;;;;38.92;20.37;;;;;;;7.46;67.23;99754.66;4376313;32;33977;-84
2022/02/15 07:36:32;;;;;;;36.60;18.55;;;;;;;7.55;67.19;99751.69;4374074;32;33946;-85
2022/02/15 07:39:00;;;;;;;37.22;18.58;;;;;;;7.67;67.23;99757.41;4362260;32;32492;-84
2022/02/15 07:41:30;;;;;;;27.13;16.25;;;;;;;7.78;67.30;99749.19;4372987;32;33380;-85
2022/02/15 07:43:58;;;;;;;28.20;15.57;;;;;;;7.84;67.36;99753.41;4363193;32;34487;-84
2022/02/15 07:46:31;;;;;;;34.97;19.10;;;;;;;8.05;67.08;99752.66;4374642;32;32618;-85
2022/02/15 07:48:58;;;;;;;37.55;19.85;;;;;;;8.17;66.97;99751.41;4373438;32;31923;-85
2022/02/15 07:51:26;;;;;;;27.48;15.73;;;;;;;8.13;67.15;99755.91;4377122;32;33765;-84
2022/02/15 07:53:54;;;;;;;27.55;15.13;;;;;;;8.15;67.21;99745.31;4362723;32;34697;-84
2022/02/15 07:56:23;;;;;;;28.12;16.17;;;;;;;8.07;67.04;99755.22;4362973;32;33674;-84
2022/02/15 07:58:50;;;;;;;34.70;16.42;;;;;;;8.22;66.68;99749.47;4361710;32;31925;-85
2022/02/15 08:01:18;;;;;;;25.85;15.15;;;;;;;8.22;66.60;99757.34;4360060;32;31891;-84
2022/02/15 08:03:46;;;;;;;24.77;14.50;;;;;;;8.86;64.96;99757.69;4369461;32;35056;-85
2022/02/15 08:06:15;;;;;;;23.15;14.23;;;;;;;8.87;64.87;99754.12;4360919;32;32886;-84
2022/02/15 08:08:43;;;;;;;31.58;14.45;;;;;;;9.08;64.60;99757.75;4375518;32;32542;-84
2022/02/15 08:11:11;;;;;;;26.37;15.45;;;;;;;8.93;64.54;99753.06;4351989;32;35221;-84
2022/02/15 08:13:42;;;;;;;22.02;14.70;;;;;;;9.10;64.28;99762.94;4360192;32;33664;-84
2022/02/15 08:16:10;;;;;;;23.00;14.70;;;;;;;8.92;64.93;99761.84;4370616;32;33817;-84
2022/02/15 08:18:41;;;;;;;28.27;16.17;;;;;;;9.27;63.37;99757.87;4371594;32;33208;-84
2022/02/15 08:21:10;;;;;;;26.20;15.15;;;;;;;9.34;64.49;99764.63;4352959;32;33110;-84
2022/02/15 08:23:58;;;;;;;28.60;15.98;;;;;;;9.29;64.80;99756.03;4363263;32;33617;-84
2022/02/15 08:26:25;;;;;;;30.70;17.00;;;;;;;9.51;64.22;99756.06;4359087;32;34026;-84
2022/02/15 08:28:53;;;;;;;31.48;17.45;;;;;;;9.41;64.56;99766.13;4373018;32;31582;-84
2022/02/15 08:31:21;;;;;;;28.17;16.52;;;;;;;9.21;65.23;99773.94;4372560;32;33547;-84
2022/02/15 08:33:49;;;;;;;27.42;15.93;;;;;;;9.20;64.77;99777.47;4373578;32;33214;-84
2022/02/15 08:36:17;;;;;;;29.25;17.23;;;;;;;9.69;62.86;99775.56;4361763;32;32741;-84
2022/02/15 08:38:45;;;;;;;27.20;14.73;;;;;;;9.51;64.69;99771.87;4363702;32;33160;-84
2022/02/15 08:41:14;;;;;;;29.73;15.43;;;;;;;9.71;64.33;99763.16;4350894;32;34963;-84
2022/02/15 08:43:44;;;;;;;25.77;15.60;;;;;;;10.07;63.34;99770.50;4363594;32;35438;-84
2022/02/15 08:46:12;;;;;;;23.70;14.27;;;;;;;10.13;63.00;99757.87;4363363;32;35042;-84
2022/02/15 08:48:40;;;;;;;29.63;15.13;;;;;;;10.42;61.98;99767.22;4368188;32;33025;-86
2022/02/15 08:51:08;;;;;;;22.65;14.52;;;;;;;10.51;60.75;99774.72;4370844;32;32695;-86
2022/02/15 08:53:38;;;;;;;25.15;14.38;;;;;;;10.60;61.27;99775.25;4356119;32;34125;-86
2022/02/15 08:56:06;;;;;;;23.12;14.10;;;;;;;10.64;61.18;99779.50;4351402;32;33830;-86
2022/02/15 08:58:34;;;;;;;27.20;15.60;;;;;;;10.30;61.84;99778.28;4374195;32;32015;-86
2022/02/15 09:01:02;;;;;;;21.60;13.62;;;;;;;10.24;62.38;99768.84;4361683;32;33693;-85
2022/02/15 09:03:30;;;;;;;22.30;13.98;;;;;;;10.25;61.96;99775.00;4370415;32;32828;-86
2022/02/15 09:06:00;;;;;;;24.55;12.60;;;;;;;10.68;61.36;99774.00;4375279;32;33085;-85
2022/02/15 09:08:28;;;;;;;29.15;14.87;;;;;;;10.43;61.76;99778.63;4358782;32;33159;-85
2022/02/15 09:10:56;;;;;;;28.35;15.13;;;;;;;10.35;62.02;99771.06;4362758;32;32977;-85
2022/02/15 09:13:24;;;;;;;22.08;12.82;;;;;;;10.91;61.34;99782.66;4367914;32;34618;-86
2022/02/15 09:16:03;;;;;;;21.33;13.00;;;;;;;10.41;62.41;99777.84;4369501;32;34728;-86
2022/02/15 09:18:30;;;;;;;18.62;12.48;;;;;;;11.01;60.05;99773.37;4362926;32;32709;-85
2022/02/15 09:20:58;;;;;;;22.62;13.88;;;;;;;11.54;58.07;99760.31;4351119;32;33435;-86
2022/02/15 09:23:26;;;;;;;22.05;12.93;;;;;;;11.84;57.80;99758.91;4363439;32;34226;-86
2022/02/15 09:25:56;;;;;;;18.20;12.02;;;;;;;12.05;56.96;99760.47;4376865;32;34328;-85
2022/02/15 09:28:24;;;;;;;22.20;11.80;;;;;;;12.17;56.97;99769.59;4357022;32;33107;-86
2022/02/15 09:30:55;;;;;;;20.12;12.63;;;;;;;12.45;56.03;99763.75;4356132;32;32608;-85
2022/02/15 09:33:24;;;;;;;17.02;9.68;;;;;;;11.84;57.17;99762.41;4362960;32;33615;-86
2022/02/15 09:36:12;;;;;;;19.85;11.35;;;;;;;12.17;56.25;99767.81;4380655;32;33708;-86
2022/02/15 09:38:40;;;;;;;16.00;9.30;;;;;;;12.64;54.53;99763.63;4363017;32;33144;-86
2022/02/15 09:41:07;;;;;;;21.30;11.38;;;;;;;12.49;55.82;99760.00;4375522;32;32804;-86
2022/02/15 09:43:36;;;;;;;17.23;8.98;;;;;;;12.78;55.51;99761.12;4387790;32;33394;-86
2022/02/15 09:46:08;;;;;;;13.88;9.38;;;;;;;12.73;54.11;99763.16;4375248;32;33406;-86
2022/02/15 09:48:36;;;;;;;16.50;9.52;;;;;;;13.23;53.10;99760.44;4375547;32;33688;-86
2022/02/15 09:51:05;;;;;;;15.63;9.50;;;;;;;12.73;54.58;99763.16;4365219;32;34363;-86
2022/02/15 09:53:33;;;;;;;19.90;10.35;;;;;;;12.90;53.70;99764.87;4362144;32;32690;-86
2022/02/15 09:56:02;;;;;;;17.30;9.98;;;;;;;12.93;53.54;99759.44;4375742;32;33058;-86
2022/02/15 09:58:31;;;;;;;16.87;9.55;;;;;;;12.71;54.19;99765.00;4362791;32;33282;-86
2022/02/15 10:01:03;;;;;;;16.12;9.77;;;;;;;12.92;53.85;99758.56;4363140;32;33822;-86
2022/02/15 10:03:32;;;;;;;14.05;9.00;;;;;;;12.69;54.14;99757.16;4374864;32;33423;-86
2022/02/15 10:06:02;;;;;;;14.63;7.53;;;;;;;12.72;54.78;99764.06;4361220;32;32888;-86
2022/02/15 10:08:31;;;;;;;11.70;7.07;;;;;;;12.56;54.12;99759.59;4375881;32;32825;-86
2022/02/15 10:11:16;;;;;;;14.13;8.00;;;;;;;12.56;54.11;99766.69;4374970;32;33963;-86
2022/02/15 10:13:45;;;;;;;16.05;9.35;;;;;;;12.28;55.03;99773.41;4375011;32;33538;-86
2022/02/15 10:16:15;;;;;;;13.62;8.82;;;;;;;12.75;55.07;99762.13;4373318;32;33493;-86
2022/02/15 10:18:43;;;;;;;15.73;7.87;;;;;;;12.92;55.55;99755.94;4376606;32;33331;-86
2022/02/15 10:21:16;;;;;;;16.55;8.75;;;;;;;13.49;53.81;99759.00;4374301;32;33537;-86
2022/02/15 10:23:50;;;;;;;10.45;6.50;;;;;;;13.16;54.58;99760.84;4373668;32;34149;-86
2022/02/15 10:26:18;;;;;;;15.48;8.55;;;;;;;13.29;52.55;99751.28;4372727;32;34009;-86
2022/02/15 10:28:46;;;;;;;12.45;7.53;;;;;;;13.66;52.79;99747.41;4387632;32;33074;-86
2022/02/15 10:31:15;;;;;;;10.70;7.37;;;;;;;13.40;53.62;99754.19;4374911;32;32784;-86
2022/02/15 10:34:47;;;;;;;12.05;6.80;;;;;;;13.64;51.55;99748.44;4374605;32;34373;-86
2022/02/15 10:37:43;;;;;;;13.90;7.12;;;;;;;13.69;52.13;99754.34;4384335;32;34317;-86
2022/02/15 10:40:13;;;;;;;10.02;6.57;;;;;;;13.60;52.28;99758.38;4376724;32;34244;-86
2022/02/15 10:42:40;;;;;;;9.30;6.15;;;;;;;14.19;51.61;99758.50;4376274;32;34033;-86
2022/02/15 10:45:10;;;;;;;13.43;8.23;;;;;;;14.44;52.74;99753.44;4389621;32;33925;-86
2022/02/15 10:47:43;;;;;;;10.68;6.62;;;;;;;14.28;51.96;99757.94;4378069;32;33880;-86
2022/02/15 10:50:13;;;;;;;10.13;7.57;;;;;;;14.23;50.27;99752.91;4377781;32;33240;-86
2022/02/15 10:52:42;;;;;;;11.73;7.45;;;;;;;14.95;48.12;99737.06;4374455;32;33135;-86
2022/02/15 10:55:11;;;;;;;9.80;6.30;;;;;;;15.45;46.87;99736.50;4377622;32;33550;-86
2022/02/15 10:57:40;;;;;;;13.02;5.37;;;;;;;15.42;48.64;99735.84;4378769;32;33259;-86
2022/02/15 11:00:10;;;;;;;8.13;4.53;;;;;;;15.70;47.71;99735.78;4366091;32;33067;-87
2022/02/15 11:02:40;;;;;;;10.25;4.75;;;;;;;15.20;46.35;99736.38;4378764;32;33748;-86
2022/02/15 11:05:11;;;;;;;9.05;3.67;;;;;;;15.36;48.04;99732.63;4365473;32;33745;-86
2022/02/15 11:08:01;;;;;;;8.13;4.35;;;;;;;15.17;47.31;99736.56;4368936;32;32547;-86
2022/02/15 11:10:41;;;;;;;7.60;5.03;;;;;;;15.38;46.87;99735.19;4373879;32;33037;-86
2022/02/15 11:13:09;;;;;;;10.38;4.40;;;;;;;15.26;46.93;99736.84;4403407;32;33540;-86
2022/02/15 11:15:40;;;;;;;10.52;4.32;;;;;;;16.45;43.94;99729.88;4379543;32;33615;-86
2022/02/15 11:18:14;;;;;;;6.47;4.18;;;;;;;16.43;44.30;99724.66;4393041;32;33497;-86
2022/02/15 11:20:50;;;;;;;6.53;4.60;;;;;;;15.96;44.81;99719.91;4379267;32;33365;-86
2022/02/15 11:23:22;;;;;;;10.95;5.00;;;;;;;16.02;46.83;99723.00;4377873;32;34606;-86
2022/02/15 11:26:06;;;;;;;12.10;5.70;;;;;;;16.27;45.91;99710.66;4372151;32;33448;-86
2022/02/15 11:28:34;;;;;;;8.55;4.50;;;;;;;16.22;46.99;99715.47;4366636;32;33958;-86
2022/02/15 11:31:03;;;;;;;10.27;5.62;;;;;;;16.91;44.10;99714.22;4377774;32;32392;-86
2022/02/15 11:33:36;;;;;;;7.40;4.60;;;;;;;16.94;44.03;99713.13;4375668;32;33535;-86
2022/02/15 11:36:09;;;;;;;9.00;4.70;;;;;;;17.14;42.50;99708.06;4388440;32;33535;-86
2022/02/15 11:38:37;;;;;;;7.30;5.22;;;;;;;17.21;41.99;99699.62;4375606;32;32385;-87
2022/02/15 11:41:12;;;;;;;9.75;5.37;;;;;;;16.94;44.88;99699.78;4388951;32;31919;-87